sensor_id;sensor_type;location;lat;lon;timestamp;P1;durP1;ratioP1;P2;durP2;ratioP2
67456;SDS011;54319;52.038;4.640;2023-04-03T00:00:39;4.32;;;1.75;;
67456;SDS011;54319;52.038;4.640;2023-04-03T00:03:06;5.38;;;1.80;;
67456;SDS011;54319;52.038;4.640;2023-04-03T00:05:33;2.30;;;1.65;;
67456;SDS011;54319;52.038;4.640;2023-04-03T00:08:00;3.07;;;1.90;;
67456;SDS011;54319;52.038;4.640;2023-04-03T00:10:30;1.58;;;1.48;;
67456;SDS011;54319;52.038;4.640;2023-04-03T00:12:57;1.65;;;1.55;;
67456;SDS011;54319;52.038;4.640;2023-04-03T00:15:24;1.98;;;1.70;;
67456;SDS011;54319;52.038;4.640;2023-04-03T00:17:50;3.30;;;1.67;;
67456;SDS011;54319;52.038;4.640;2023-04-03T00:20:17;2.72;;;1.65;;
67456;SDS011;54319;52.038;4.640;2023-04-03T00:22:44;3.10;;;1.75;;
67456;SDS011;54319;52.038;4.640;2023-04-03T00:25:11;3.20;;;1.80;;
67456;SDS011;54319;52.038;4.640;2023-04-03T00:27:39;2.60;;;1.75;;
67456;SDS011;54319;52.038;4.640;2023-04-03T00:30:08;2.63;;;1.80;;
67456;SDS011;54319;52.038;4.640;2023-04-03T00:32:37;3.03;;;1.58;;
67456;SDS011;54319;52.038;4.640;2023-04-03T00:35:05;3.38;;;1.85;;
67456;SDS011;54319;52.038;4.640;2023-04-03T00:37:32;2.60;;;1.73;;
67456;SDS011;54319;52.038;4.640;2023-04-03T00:39:59;2.08;;;1.85;;
67456;SDS011;54319;52.038;4.640;2023-04-03T00:42:26;1.75;;;1.48;;
67456;SDS011;54319;52.038;4.640;2023-04-03T00:48:00;2.40;;;1.55;;
67456;SDS011;54319;52.038;4.640;2023-04-03T00:50:30;3.80;;;1.60;;
67456;SDS011;54319;52.038;4.640;2023-04-03T00:53:00;2.28;;;1.50;;
67456;SDS011;54319;52.038;4.640;2023-04-03T00:55:27;5.43;;;1.85;;
67456;SDS011;54319;52.038;4.640;2023-04-03T01:00:22;1.50;;;1.40;;
67456;SDS011;54319;52.038;4.640;2023-04-03T01:02:50;3.72;;;1.60;;
67456;SDS011;54319;52.038;4.640;2023-04-03T01:05:19;2.13;;;1.58;;
67456;SDS011;54319;52.038;4.640;2023-04-03T01:07:47;2.88;;;1.60;;
67456;SDS011;54319;52.038;4.640;2023-04-03T01:10:15;5.07;;;1.73;;
67456;SDS011;54319;52.038;4.640;2023-04-03T01:12:46;2.78;;;1.60;;
67456;SDS011;54319;52.038;4.640;2023-04-03T01:15:14;3.03;;;1.65;;
67456;SDS011;54319;52.038;4.640;2023-04-03T01:17:44;5.00;;;1.90;;
67456;SDS011;54319;52.038;4.640;2023-04-03T01:20:30;1.52;;;1.42;;
67456;SDS011;54319;52.038;4.640;2023-04-03T01:23:47;1.73;;;1.55;;
67456;SDS011;54319;52.038;4.640;2023-04-03T01:26:21;1.90;;;1.65;;
67456;SDS011;54319;52.038;4.640;2023-04-03T01:28:48;2.65;;;1.80;;
67456;SDS011;54319;52.038;4.640;2023-04-03T01:31:18;3.53;;;1.90;;
67456;SDS011;54319;52.038;4.640;2023-04-03T01:33:49;2.95;;;1.80;;
67456;SDS011;54319;52.038;4.640;2023-04-03T01:36:18;3.00;;;1.75;;
67456;SDS011;54319;52.038;4.640;2023-04-03T01:38:46;3.05;;;1.55;;
67456;SDS011;54319;52.038;4.640;2023-04-03T01:41:13;2.30;;;1.73;;
67456;SDS011;54319;52.038;4.640;2023-04-03T01:43:40;3.80;;;1.70;;
67456;SDS011;54319;52.038;4.640;2023-04-03T01:46:07;3.17;;;1.65;;
67456;SDS011;54319;52.038;4.640;2023-04-03T01:48:33;2.17;;;1.70;;
67456;SDS011;54319;52.038;4.640;2023-04-03T01:51:02;3.37;;;1.57;;
67456;SDS011;54319;52.038;4.640;2023-04-03T01:53:28;2.30;;;1.70;;
67456;SDS011;54319;52.038;4.640;2023-04-03T01:55:55;3.58;;;1.50;;
67456;SDS011;54319;52.038;4.640;2023-04-03T01:58:21;5.78;;;1.85;;
67456;SDS011;54319;52.038;4.640;2023-04-03T02:00:48;2.50;;;1.90;;
67456;SDS011;54319;52.038;4.640;2023-04-03T02:03:15;4.55;;;1.90;;
67456;SDS011;54319;52.038;4.640;2023-04-03T02:05:41;4.55;;;1.88;;
67456;SDS011;54319;52.038;4.640;2023-04-03T02:08:09;1.70;;;1.50;;
67456;SDS011;54319;52.038;4.640;2023-04-03T02:10:36;2.88;;;1.63;;
67456;SDS011;54319;52.038;4.640;2023-04-03T02:13:03;2.93;;;1.77;;
67456;SDS011;54319;52.038;4.640;2023-04-03T02:15:30;3.10;;;2.23;;
67456;SDS011;54319;52.038;4.640;2023-04-03T02:17:56;2.88;;;1.70;;
67456;SDS011;54319;52.038;4.640;2023-04-03T02:20:23;2.17;;;1.50;;
67456;SDS011;54319;52.038;4.640;2023-04-03T02:22:50;3.25;;;1.90;;
67456;SDS011;54319;52.038;4.640;2023-04-03T02:25:18;3.33;;;1.88;;
67456;SDS011;54319;52.038;4.640;2023-04-03T02:27:45;2.30;;;1.60;;
67456;SDS011;54319;52.038;4.640;2023-04-03T02:30:12;3.17;;;1.50;;
67456;SDS011;54319;52.038;4.640;2023-04-03T02:32:39;6.20;;;1.75;;
67456;SDS011;54319;52.038;4.640;2023-04-03T02:35:07;2.70;;;1.83;;
67456;SDS011;54319;52.038;4.640;2023-04-03T02:40:01;6.47;;;2.10;;
67456;SDS011;54319;52.038;4.640;2023-04-03T02:42:30;3.40;;;1.63;;
67456;SDS011;54319;52.038;4.640;2023-04-03T02:44:56;5.78;;;1.65;;
67456;SDS011;54319;52.038;4.640;2023-04-03T02:47:25;2.33;;;1.60;;
67456;SDS011;54319;52.038;4.640;2023-04-03T02:49:52;5.13;;;1.80;;
67456;SDS011;54319;52.038;4.640;2023-04-03T02:52:18;3.03;;;2.00;;
67456;SDS011;54319;52.038;4.640;2023-04-03T02:54:45;1.70;;;1.60;;
67456;SDS011;54319;52.038;4.640;2023-04-03T02:57:11;6.10;;;2.28;;
67456;SDS011;54319;52.038;4.640;2023-04-03T02:59:39;4.43;;;2.13;;
67456;SDS011;54319;52.038;4.640;2023-04-03T03:02:06;3.72;;;2.17;;
67456;SDS011;54319;52.038;4.640;2023-04-03T03:04:33;2.97;;;1.97;;
67456;SDS011;54319;52.038;4.640;2023-04-03T03:07:00;2.60;;;1.88;;
67456;SDS011;54319;52.038;4.640;2023-04-03T03:09:27;4.05;;;1.83;;
67456;SDS011;54319;52.038;4.640;2023-04-03T03:11:55;2.92;;;1.95;;
67456;SDS011;54319;52.038;4.640;2023-04-03T03:16:50;4.82;;;1.92;;
67456;SDS011;54319;52.038;4.640;2023-04-03T03:19:16;1.92;;;1.80;;
67456;SDS011;54319;52.038;4.640;2023-04-03T03:21:43;2.63;;;1.85;;
67456;SDS011;54319;52.038;4.640;2023-04-03T03:24:09;2.25;;;1.77;;
67456;SDS011;54319;52.038;4.640;2023-04-03T03:26:37;6.93;;;2.08;;
67456;SDS011;54319;52.038;4.640;2023-04-03T03:29:03;4.20;;;2.05;;
67456;SDS011;54319;52.038;4.640;2023-04-03T03:31:30;4.53;;;2.10;;
67456;SDS011;54319;52.038;4.640;2023-04-03T03:33:58;2.90;;;1.98;;
67456;SDS011;54319;52.038;4.640;2023-04-03T03:36:24;3.17;;;1.95;;
67456;SDS011;54319;52.038;4.640;2023-04-03T03:38:51;1.80;;;1.70;;
67456;SDS011;54319;52.038;4.640;2023-04-03T03:41:18;3.45;;;2.15;;
67456;SDS011;54319;52.038;4.640;2023-04-03T03:43:44;3.38;;;2.10;;
67456;SDS011;54319;52.038;4.640;2023-04-03T03:46:11;3.67;;;2.00;;
67456;SDS011;54319;52.038;4.640;2023-04-03T03:48:37;3.05;;;1.88;;
67456;SDS011;54319;52.038;4.640;2023-04-03T03:51:05;4.88;;;2.00;;
67456;SDS011;54319;52.038;4.640;2023-04-03T03:53:32;6.05;;;2.05;;
67456;SDS011;54319;52.038;4.640;2023-04-03T03:55:59;2.42;;;2.10;;
67456;SDS011;54319;52.038;4.640;2023-04-03T03:58:25;6.53;;;2.10;;
67456;SDS011;54319;52.038;4.640;2023-04-03T04:00:52;4.43;;;2.38;;
67456;SDS011;54319;52.038;4.640;2023-04-03T04:03:19;6.47;;;2.30;;
67456;SDS011;54319;52.038;4.640;2023-04-03T04:05:47;2.80;;;2.10;;
67456;SDS011;54319;52.038;4.640;2023-04-03T04:08:15;4.72;;;2.40;;
67456;SDS011;54319;52.038;4.640;2023-04-03T04:10:41;2.83;;;2.10;;
67456;SDS011;54319;52.038;4.640;2023-04-03T04:13:08;3.22;;;2.47;;
67456;SDS011;54319;52.038;4.640;2023-04-03T04:15:34;2.83;;;2.13;;
67456;SDS011;54319;52.038;4.640;2023-04-03T04:18:01;3.03;;;2.30;;
67456;SDS011;54319;52.038;4.640;2023-04-03T04:20:28;5.90;;;2.33;;
67456;SDS011;54319;52.038;4.640;2023-04-03T04:22:55;4.35;;;2.15;;
67456;SDS011;54319;52.038;4.640;2023-04-03T04:25:23;4.75;;;2.17;;
67456;SDS011;54319;52.038;4.640;2023-04-03T04:27:49;5.07;;;2.42;;
67456;SDS011;54319;52.038;4.640;2023-04-03T04:30:16;3.47;;;2.33;;
67456;SDS011;54319;52.038;4.640;2023-04-03T04:32:43;4.57;;;2.35;;
67456;SDS011;54319;52.038;4.640;2023-04-03T04:35:09;8.90;;;2.40;;
67456;SDS011;54319;52.038;4.640;2023-04-03T04:37:36;4.75;;;2.33;;
67456;SDS011;54319;52.038;4.640;2023-04-03T04:40:03;5.70;;;2.35;;
67456;SDS011;54319;52.038;4.640;2023-04-03T04:42:32;4.57;;;2.33;;
67456;SDS011;54319;52.038;4.640;2023-04-03T04:44:58;4.25;;;2.22;;
67456;SDS011;54319;52.038;4.640;2023-04-03T04:47:25;10.65;;;2.30;;
67456;SDS011;54319;52.038;4.640;2023-04-03T04:49:51;3.38;;;2.30;;
67456;SDS011;54319;52.038;4.640;2023-04-03T04:52:18;3.50;;;2.47;;
67456;SDS011;54319;52.038;4.640;2023-04-03T04:54:45;7.13;;;2.72;;
67456;SDS011;54319;52.038;4.640;2023-04-03T04:57:11;2.85;;;2.15;;
67456;SDS011;54319;52.038;4.640;2023-04-03T04:59:39;2.47;;;2.22;;
67456;SDS011;54319;52.038;4.640;2023-04-03T05:02:06;5.50;;;2.90;;
67456;SDS011;54319;52.038;4.640;2023-04-03T05:04:32;4.03;;;2.35;;
67456;SDS011;54319;52.038;4.640;2023-04-03T05:07:00;3.03;;;2.17;;
67456;SDS011;54319;52.038;4.640;2023-04-03T05:09:27;4.60;;;2.40;;
67456;SDS011;54319;52.038;4.640;2023-04-03T05:11:54;3.08;;;2.40;;
67456;SDS011;54319;52.038;4.640;2023-04-03T05:14:21;4.60;;;2.47;;
67456;SDS011;54319;52.038;4.640;2023-04-03T05:16:49;3.78;;;2.72;;
67456;SDS011;54319;52.038;4.640;2023-04-03T05:19:18;8.88;;;3.22;;
67456;SDS011;54319;52.038;4.640;2023-04-03T05:21:44;3.33;;;2.40;;
67456;SDS011;54319;52.038;4.640;2023-04-03T05:24:11;3.53;;;2.50;;
67456;SDS011;54319;52.038;4.640;2023-04-03T05:26:39;6.88;;;2.65;;
67456;SDS011;54319;52.038;4.640;2023-04-03T05:29:05;3.95;;;2.53;;
67456;SDS011;54319;52.038;4.640;2023-04-03T05:31:32;3.75;;;2.63;;
67456;SDS011;54319;52.038;4.640;2023-04-03T05:34:00;5.37;;;2.77;;
67456;SDS011;54319;52.038;4.640;2023-04-03T05:36:27;3.70;;;2.80;;
67456;SDS011;54319;52.038;4.640;2023-04-03T05:38:54;4.03;;;2.80;;
67456;SDS011;54319;52.038;4.640;2023-04-03T05:41:22;6.50;;;2.80;;
67456;SDS011;54319;52.038;4.640;2023-04-03T05:46:17;4.47;;;2.97;;
67456;SDS011;54319;52.038;4.640;2023-04-03T05:48:45;4.78;;;2.65;;
67456;SDS011;54319;52.038;4.640;2023-04-03T05:51:15;4.82;;;2.95;;
67456;SDS011;54319;52.038;4.640;2023-04-03T05:53:43;9.20;;;3.17;;
67456;SDS011;54319;52.038;4.640;2023-04-03T05:58:37;3.65;;;2.83;;
67456;SDS011;54319;52.038;4.640;2023-04-03T06:01:04;3.55;;;2.65;;
67456;SDS011;54319;52.038;4.640;2023-04-03T06:03:31;6.60;;;3.10;;
67456;SDS011;54319;52.038;4.640;2023-04-03T06:05:58;4.00;;;2.90;;
67456;SDS011;54319;52.038;4.640;2023-04-03T06:08:27;5.07;;;3.10;;
67456;SDS011;54319;52.038;4.640;2023-04-03T06:10:54;4.93;;;2.92;;
67456;SDS011;54319;52.038;4.640;2023-04-03T06:13:21;5.22;;;2.67;;
67456;SDS011;54319;52.038;4.640;2023-04-03T06:15:47;6.47;;;2.80;;
67456;SDS011;54319;52.038;4.640;2023-04-03T06:18:14;4.53;;;2.60;;
67456;SDS011;54319;52.038;4.640;2023-04-03T06:20:41;5.20;;;2.78;;
67456;SDS011;54319;52.038;4.640;2023-04-03T06:23:07;7.35;;;2.80;;
67456;SDS011;54319;52.038;4.640;2023-04-03T06:25:36;4.80;;;2.72;;
67456;SDS011;54319;52.038;4.640;2023-04-03T06:28:03;6.25;;;3.08;;
67456;SDS011;54319;52.038;4.640;2023-04-03T06:30:30;9.73;;;2.67;;
67456;SDS011;54319;52.038;4.640;2023-04-03T06:32:56;4.45;;;2.70;;
67456;SDS011;54319;52.038;4.640;2023-04-03T06:37:51;5.22;;;3.33;;
67456;SDS011;54319;52.038;4.640;2023-04-03T06:40:18;6.43;;;3.10;;
67456;SDS011;54319;52.038;4.640;2023-04-03T06:42:49;8.05;;;2.60;;
67456;SDS011;54319;52.038;4.640;2023-04-03T06:45:16;6.47;;;2.58;;
67456;SDS011;54319;52.038;4.640;2023-04-03T06:47:43;3.65;;;2.42;;
67456;SDS011;54319;52.038;4.640;2023-04-03T06:50:10;3.90;;;2.72;;
67456;SDS011;54319;52.038;4.640;2023-04-03T06:52:39;5.47;;;2.58;;
67456;SDS011;54319;52.038;4.640;2023-04-03T06:55:06;8.25;;;2.63;;
67456;SDS011;54319;52.038;4.640;2023-04-03T06:57:34;4.88;;;2.33;;
67456;SDS011;54319;52.038;4.640;2023-04-03T07:00:03;4.33;;;2.50;;
67456;SDS011;54319;52.038;4.640;2023-04-03T07:02:31;3.28;;;2.30;;
67456;SDS011;54319;52.038;4.640;2023-04-03T07:04:57;6.50;;;3.07;;
67456;SDS011;54319;52.038;4.640;2023-04-03T07:07:25;4.68;;;2.70;;
67456;SDS011;54319;52.038;4.640;2023-04-03T07:12:18;4.40;;;2.20;;
67456;SDS011;54319;52.038;4.640;2023-04-03T07:14:45;3.47;;;2.00;;
67456;SDS011;54319;52.038;4.640;2023-04-03T07:17:13;7.07;;;2.10;;
67456;SDS011;54319;52.038;4.640;2023-04-03T07:19:40;5.75;;;2.63;;
67456;SDS011;54319;52.038;4.640;2023-04-03T07:22:06;4.53;;;2.40;;
67456;SDS011;54319;52.038;4.640;2023-04-03T07:24:33;3.28;;;2.22;;
67456;SDS011;54319;52.038;4.640;2023-04-03T07:27:00;4.60;;;2.00;;
67456;SDS011;54319;52.038;4.640;2023-04-03T07:29:27;3.67;;;1.88;;
67456;SDS011;54319;52.038;4.640;2023-04-03T07:31:54;7.30;;;2.28;;
67456;SDS011;54319;52.038;4.640;2023-04-03T07:34:22;5.95;;;2.35;;
67456;SDS011;54319;52.038;4.640;2023-04-03T07:36:49;4.00;;;1.83;;
67456;SDS011;54319;52.038;4.640;2023-04-03T07:39:15;4.60;;;1.80;;
67456;SDS011;54319;52.038;4.640;2023-04-03T07:41:42;3.17;;;1.92;;
67456;SDS011;54319;52.038;4.640;2023-04-03T07:44:08;2.83;;;1.70;;
67456;SDS011;54319;52.038;4.640;2023-04-03T07:46:36;2.58;;;1.67;;
67456;SDS011;54319;52.038;4.640;2023-04-03T07:49:02;4.93;;;1.97;;
67456;SDS011;54319;52.038;4.640;2023-04-03T07:51:32;7.40;;;1.92;;
67456;SDS011;54319;52.038;4.640;2023-04-03T07:53:58;5.57;;;2.15;;
67456;SDS011;54319;52.038;4.640;2023-04-03T07:56:25;5.10;;;2.00;;
67456;SDS011;54319;52.038;4.640;2023-04-03T07:58:51;4.75;;;1.80;;
67456;SDS011;54319;52.038;4.640;2023-04-03T08:01:18;4.55;;;1.70;;
67456;SDS011;54319;52.038;4.640;2023-04-03T08:03:45;3.65;;;1.88;;
67456;SDS011;54319;52.038;4.640;2023-04-03T08:06:12;4.25;;;1.98;;
67456;SDS011;54319;52.038;4.640;2023-04-03T08:11:09;4.63;;;2.03;;
67456;SDS011;54319;52.038;4.640;2023-04-03T08:13:36;4.63;;;1.98;;
67456;SDS011;54319;52.038;4.640;2023-04-03T08:16:07;4.30;;;2.15;;
67456;SDS011;54319;52.038;4.640;2023-04-03T08:18:35;8.75;;;1.83;;
67456;SDS011;54319;52.038;4.640;2023-04-03T08:21:04;6.13;;;2.13;;
67456;SDS011;54319;52.038;4.640;2023-04-03T08:23:32;5.10;;;1.75;;
67456;SDS011;54319;52.038;4.640;2023-04-03T08:26:00;3.15;;;1.83;;
67456;SDS011;54319;52.038;4.640;2023-04-03T08:28:31;4.80;;;1.80;;
67456;SDS011;54319;52.038;4.640;2023-04-03T08:31:02;3.95;;;1.58;;
67456;SDS011;54319;52.038;4.640;2023-04-03T08:33:30;6.53;;;1.70;;
67456;SDS011;54319;52.038;4.640;2023-04-03T08:35:57;3.13;;;1.67;;
67456;SDS011;54319;52.038;4.640;2023-04-03T08:38:24;4.35;;;1.90;;
67456;SDS011;54319;52.038;4.640;2023-04-03T08:41:00;4.20;;;1.58;;
67456;SDS011;54319;52.038;4.640;2023-04-03T08:43:33;2.88;;;1.40;;
67456;SDS011;54319;52.038;4.640;2023-04-03T08:46:08;3.63;;;1.92;;
67456;SDS011;54319;52.038;4.640;2023-04-03T08:48:40;3.83;;;1.60;;
67456;SDS011;54319;52.038;4.640;2023-04-03T08:51:10;4.53;;;1.58;;
67456;SDS011;54319;52.038;4.640;2023-04-03T08:53:42;4.18;;;1.80;;
67456;SDS011;54319;52.038;4.640;2023-04-03T08:56:24;2.95;;;1.45;;
67456;SDS011;54319;52.038;4.640;2023-04-03T08:58:52;5.30;;;1.75;;
67456;SDS011;54319;52.038;4.640;2023-04-03T09:01:23;4.28;;;1.50;;
67456;SDS011;54319;52.038;4.640;2023-04-03T09:03:54;2.22;;;1.63;;
67456;SDS011;54319;52.038;4.640;2023-04-03T09:06:21;3.60;;;1.50;;
67456;SDS011;54319;52.038;4.640;2023-04-03T09:09:04;2.60;;;1.40;;
67456;SDS011;54319;52.038;4.640;2023-04-03T09:11:42;1.95;;;1.00;;
67456;SDS011;54319;52.038;4.640;2023-04-03T09:14:20;2.92;;;1.20;;
67456;SDS011;54319;52.038;4.640;2023-04-03T09:16:53;2.40;;;0.95;;
67456;SDS011;54319;52.038;4.640;2023-04-03T09:19:26;2.40;;;1.25;;
67456;SDS011;54319;52.038;4.640;2023-04-03T09:22:07;1.88;;;1.17;;
67456;SDS011;54319;52.038;4.640;2023-04-03T09:24:43;2.95;;;1.13;;
67456;SDS011;54319;52.038;4.640;2023-04-03T09:27:12;1.08;;;0.90;;
67456;SDS011;54319;52.038;4.640;2023-04-03T09:29:40;1.52;;;1.00;;
67456;SDS011;54319;52.038;4.640;2023-04-03T09:32:22;2.30;;;0.90;;
67456;SDS011;54319;52.038;4.640;2023-04-03T09:34:53;3.35;;;1.00;;
67456;SDS011;54319;52.038;4.640;2023-04-03T09:43:01;0.90;;;0.90;;
67456;SDS011;54319;52.038;4.640;2023-04-03T09:45:29;1.83;;;1.10;;
67456;SDS011;54319;52.038;4.640;2023-04-03T09:48:04;1.25;;;0.80;;
67456;SDS011;54319;52.038;4.640;2023-04-03T09:50:35;2.53;;;1.33;;
67456;SDS011;54319;52.038;4.640;2023-04-03T09:53:06;1.38;;;0.90;;
67456;SDS011;54319;52.038;4.640;2023-04-03T09:55:51;1.83;;;1.10;;
67456;SDS011;54319;52.038;4.640;2023-04-03T09:58:27;1.25;;;0.90;;
67456;SDS011;54319;52.038;4.640;2023-04-03T10:00:56;2.47;;;1.30;;
67456;SDS011;54319;52.038;4.640;2023-04-03T10:03:25;2.22;;;1.10;;
67456;SDS011;54319;52.038;4.640;2023-04-03T10:05:55;1.70;;;1.00;;
67456;SDS011;54319;52.038;4.640;2023-04-03T10:11:10;1.33;;;1.05;;
67456;SDS011;54319;52.038;4.640;2023-04-03T10:13:53;1.92;;;1.00;;
67456;SDS011;54319;52.038;4.640;2023-04-03T10:16:24;3.00;;;0.90;;
67456;SDS011;54319;52.038;4.640;2023-04-03T10:18:57;2.85;;;1.20;;
67456;SDS011;54319;52.038;4.640;2023-04-03T10:21:39;2.40;;;1.10;;
67456;SDS011;54319;52.038;4.640;2023-04-03T10:24:11;1.90;;;1.00;;
67456;SDS011;54319;52.038;4.640;2023-04-03T10:26:45;4.75;;;1.20;;
67456;SDS011;54319;52.038;4.640;2023-04-03T10:29:25;2.15;;;0.93;;
67456;SDS011;54319;52.038;4.640;2023-04-03T10:32:11;1.02;;;0.80;;
67456;SDS011;54319;52.038;4.640;2023-04-03T10:35:01;2.47;;;0.82;;
67456;SDS011;54319;52.038;4.640;2023-04-03T10:37:43;1.10;;;1.00;;
67456;SDS011;54319;52.038;4.640;2023-04-03T10:40:28;7.30;;;0.98;;
67456;SDS011;54319;52.038;4.640;2023-04-03T10:43:00;1.50;;;0.70;;
67456;SDS011;54319;52.038;4.640;2023-04-03T10:45:36;4.43;;;1.02;;
67456;SDS011;54319;52.038;4.640;2023-04-03T10:48:17;0.85;;;0.73;;
67456;SDS011;54319;52.038;4.640;2023-04-03T10:50:57;2.45;;;0.75;;
67456;SDS011;54319;52.038;4.640;2023-04-03T10:53:29;1.20;;;0.90;;
67456;SDS011;54319;52.038;4.640;2023-04-03T10:56:06;2.28;;;0.82;;
67456;SDS011;54319;52.038;4.640;2023-04-03T10:58:38;2.60;;;1.02;;
67456;SDS011;54319;52.038;4.640;2023-04-03T11:01:11;2.55;;;0.90;;
67456;SDS011;54319;52.038;4.640;2023-04-03T11:03:40;1.05;;;0.88;;
67456;SDS011;54319;52.038;4.640;2023-04-03T11:06:11;2.05;;;0.75;;
67456;SDS011;54319;52.038;4.640;2023-04-03T11:08:42;1.30;;;0.70;;
67456;SDS011;54319;52.038;4.640;2023-04-03T11:11:13;1.08;;;0.70;;
67456;SDS011;54319;52.038;4.640;2023-04-03T11:13:43;2.25;;;0.85;;
67456;SDS011;54319;52.038;4.640;2023-04-03T11:16:17;1.27;;;0.80;;
67456;SDS011;54319;52.038;4.640;2023-04-03T11:18:52;0.60;;;0.60;;
67456;SDS011;54319;52.038;4.640;2023-04-03T11:21:23;1.52;;;1.00;;
67456;SDS011;54319;52.038;4.640;2023-04-03T11:23:56;2.25;;;0.90;;
67456;SDS011;54319;52.038;4.640;2023-04-03T11:26:24;2.08;;;0.70;;
67456;SDS011;54319;52.038;4.640;2023-04-03T11:28:56;0.75;;;0.70;;
67456;SDS011;54319;52.038;4.640;2023-04-03T11:31:29;0.90;;;0.60;;
67456;SDS011;54319;52.038;4.640;2023-04-03T11:34:08;0.50;;;0.50;;
67456;SDS011;54319;52.038;4.640;2023-04-03T11:36:45;1.30;;;0.68;;
67456;SDS011;54319;52.038;4.640;2023-04-03T11:39:17;0.68;;;0.50;;
67456;SDS011;54319;52.038;4.640;2023-04-03T11:41:48;1.17;;;0.60;;
67456;SDS011;54319;52.038;4.640;2023-04-03T11:44:33;0.93;;;0.60;;
67456;SDS011;54319;52.038;4.640;2023-04-03T11:47:04;0.50;;;0.50;;
67456;SDS011;54319;52.038;4.640;2023-04-03T11:49:52;0.50;;;0.50;;
67456;SDS011;54319;52.038;4.640;2023-04-03T11:58:24;0.60;;;0.60;;
67456;SDS011;54319;52.038;4.640;2023-04-03T12:04:09;0.50;;;0.50;;
67456;SDS011;54319;52.038;4.640;2023-04-03T12:09:31;1.15;;;0.80;;
67456;SDS011;54319;52.038;4.640;2023-04-03T12:12:01;0.68;;;0.50;;
67456;SDS011;54319;52.038;4.640;2023-04-03T12:14:50;1.02;;;0.60;;
67456;SDS011;54319;52.038;4.640;2023-04-03T12:17:20;0.95;;;0.60;;
67456;SDS011;54319;52.038;4.640;2023-04-03T12:19:52;0.93;;;0.63;;
67456;SDS011;54319;52.038;4.640;2023-04-03T12:22:19;1.80;;;0.50;;
67456;SDS011;54319;52.038;4.640;2023-04-03T12:24:47;1.08;;;0.60;;
67456;SDS011;54319;52.038;4.640;2023-04-03T12:27:25;0.52;;;0.52;;
67456;SDS011;54319;52.038;4.640;2023-04-03T12:30:05;0.82;;;0.70;;
67456;SDS011;54319;52.038;4.640;2023-04-03T12:35:43;0.40;;;0.40;;
67456;SDS011;54319;52.038;4.640;2023-04-03T12:38:16;0.63;;;0.60;;
67456;SDS011;54319;52.038;4.640;2023-04-03T12:41:13;3.22;;;0.80;;
67456;SDS011;54319;52.038;4.640;2023-04-03T12:43:50;0.77;;;0.77;;
67456;SDS011;54319;52.038;4.640;2023-04-03T12:46:26;1.40;;;0.80;;
67456;SDS011;54319;52.038;4.640;2023-04-03T12:49:00;1.98;;;0.98;;
67456;SDS011;54319;52.038;4.640;2023-04-03T12:51:31;1.55;;;0.88;;
67456;SDS011;54319;52.038;4.640;2023-04-03T12:54:03;0.63;;;0.63;;
67456;SDS011;54319;52.038;4.640;2023-04-03T12:56:39;0.70;;;0.70;;
67456;SDS011;54319;52.038;4.640;2023-04-03T12:59:13;1.57;;;0.80;;
67456;SDS011;54319;52.038;4.640;2023-04-03T13:01:42;1.05;;;0.80;;
67456;SDS011;54319;52.038;4.640;2023-04-03T13:04:09;3.03;;;1.00;;
67456;SDS011;54319;52.038;4.640;2023-04-03T13:06:39;1.90;;;0.93;;
67456;SDS011;54319;52.038;4.640;2023-04-03T13:09:17;1.95;;;0.90;;
67456;SDS011;54319;52.038;4.640;2023-04-03T13:11:46;1.75;;;0.90;;
67456;SDS011;54319;52.038;4.640;2023-04-03T13:14:16;4.75;;;1.00;;
67456;SDS011;54319;52.038;4.640;2023-04-03T13:19:32;2.67;;;1.02;;
67456;SDS011;54319;52.038;4.640;2023-04-03T13:22:01;1.65;;;0.93;;
67456;SDS011;54319;52.038;4.640;2023-04-03T13:24:31;1.65;;;1.15;;
67456;SDS011;54319;52.038;4.640;2023-04-03T13:27:01;1.45;;;1.00;;
67456;SDS011;54319;52.038;4.640;2023-04-03T13:29:29;1.60;;;1.20;;
67456;SDS011;54319;52.038;4.640;2023-04-03T13:31:58;2.08;;;1.15;;
67456;SDS011;54319;52.038;4.640;2023-04-03T13:34:27;3.38;;;1.10;;
67456;SDS011;54319;52.038;4.640;2023-04-03T13:36:57;1.88;;;1.13;;
67456;SDS011;54319;52.038;4.640;2023-04-03T13:39:28;1.50;;;1.13;;
67456;SDS011;54319;52.038;4.640;2023-04-03T13:41:56;4.63;;;1.25;;
67456;SDS011;54319;52.038;4.640;2023-04-03T13:44:29;1.73;;;1.20;;
67456;SDS011;54319;52.038;4.640;2023-04-03T13:47:00;1.75;;;1.13;;
67456;SDS011;54319;52.038;4.640;2023-04-03T13:49:41;0.77;;;0.75;;
67456;SDS011;54319;52.038;4.640;2023-04-03T13:52:20;2.25;;;1.13;;
67456;SDS011;54319;52.038;4.640;2023-04-03T13:54:53;1.20;;;1.10;;
67456;SDS011;54319;52.038;4.640;2023-04-03T13:57:23;2.38;;;1.17;;
67456;SDS011;54319;52.038;4.640;2023-04-03T13:59:50;1.45;;;1.08;;
67456;SDS011;54319;52.038;4.640;2023-04-03T14:02:18;2.47;;;1.20;;
67456;SDS011;54319;52.038;4.640;2023-04-03T14:04:50;1.85;;;1.10;;
67456;SDS011;54319;52.038;4.640;2023-04-03T14:07:21;1.90;;;1.10;;
67456;SDS011;54319;52.038;4.640;2023-04-03T14:09:49;1.77;;;1.20;;
67456;SDS011;54319;52.038;4.640;2023-04-03T14:12:20;2.17;;;1.20;;
67456;SDS011;54319;52.038;4.640;2023-04-03T14:14:51;1.75;;;1.10;;
67456;SDS011;54319;52.038;4.640;2023-04-03T14:17:20;1.90;;;1.08;;
67456;SDS011;54319;52.038;4.640;2023-04-03T14:19:48;2.97;;;1.20;;
67456;SDS011;54319;52.038;4.640;2023-04-03T14:22:17;0.82;;;0.77;;
67456;SDS011;54319;52.038;4.640;2023-04-03T14:24:46;1.85;;;1.17;;
67456;SDS011;54319;52.038;4.640;2023-04-03T14:27:15;1.38;;;1.00;;
67456;SDS011;54319;52.038;4.640;2023-04-03T14:29:45;2.08;;;1.13;;
67456;SDS011;54319;52.038;4.640;2023-04-03T14:32:12;0.80;;;0.80;;
67456;SDS011;54319;52.038;4.640;2023-04-03T14:34:41;3.22;;;1.33;;
67456;SDS011;54319;52.038;4.640;2023-04-03T14:37:09;1.85;;;1.00;;
67456;SDS011;54319;52.038;4.640;2023-04-03T14:39:37;1.88;;;1.08;;
67456;SDS011;54319;52.038;4.640;2023-04-03T14:42:05;2.00;;;0.80;;
67456;SDS011;54319;52.038;4.640;2023-04-03T14:44:32;1.15;;;1.00;;
67456;SDS011;54319;52.038;4.640;2023-04-03T14:47:01;3.05;;;1.20;;
67456;SDS011;54319;52.038;4.640;2023-04-03T14:49:28;2.05;;;1.02;;
67456;SDS011;54319;52.038;4.640;2023-04-03T14:51:55;2.03;;;1.13;;
67456;SDS011;54319;52.038;4.640;2023-04-03T14:56:52;1.85;;;1.05;;
67456;SDS011;54319;52.038;4.640;2023-04-03T14:59:21;3.47;;;0.90;;
67456;SDS011;54319;52.038;4.640;2023-04-03T15:01:48;1.88;;;1.00;;
67456;SDS011;54319;52.038;4.640;2023-04-03T15:04:17;2.65;;;1.35;;
67456;SDS011;54319;52.038;4.640;2023-04-03T15:06:47;2.33;;;1.20;;
67456;SDS011;54319;52.038;4.640;2023-04-03T15:09:18;1.38;;;1.08;;
67456;SDS011;54319;52.038;4.640;2023-04-03T15:11:47;3.97;;;1.23;;
67456;SDS011;54319;52.038;4.640;2023-04-03T15:14:14;2.25;;;1.00;;
67456;SDS011;54319;52.038;4.640;2023-04-03T15:16:41;1.90;;;1.13;;
67456;SDS011;54319;52.038;4.640;2023-04-03T15:19:07;2.05;;;1.10;;
67456;SDS011;54319;52.038;4.640;2023-04-03T15:21:36;3.47;;;1.13;;
67456;SDS011;54319;52.038;4.640;2023-04-03T15:24:03;2.33;;;1.10;;
67456;SDS011;54319;52.038;4.640;2023-04-03T15:26:30;4.03;;;1.30;;
67456;SDS011;54319;52.038;4.640;2023-04-03T15:31:24;1.67;;;0.98;;
67456;SDS011;54319;52.038;4.640;2023-04-03T15:33:51;2.43;;;1.27;;
67456;SDS011;54319;52.038;4.640;2023-04-03T15:36:18;1.23;;;1.02;;
67456;SDS011;54319;52.038;4.640;2023-04-03T15:38:46;2.50;;;1.20;;
67456;SDS011;54319;52.038;4.640;2023-04-03T15:41:12;3.22;;;1.20;;
67456;SDS011;54319;52.038;4.640;2023-04-03T15:43:39;3.25;;;1.30;;
67456;SDS011;54319;52.038;4.640;2023-04-03T15:46:06;1.33;;;1.10;;
67456;SDS011;54319;52.038;4.640;2023-04-03T15:48:33;2.10;;;1.30;;
67456;SDS011;54319;52.038;4.640;2023-04-03T15:51:00;2.63;;;1.30;;
67456;SDS011;54319;52.038;4.640;2023-04-03T15:53:26;2.42;;;1.30;;
67456;SDS011;54319;52.038;4.640;2023-04-03T15:55:54;2.57;;;1.30;;